Terminal Aerodrome Forecast
Issued by NWS

Home | Current Version | Previous Version | Text Only | Print | Product List | Glossary On
Versions: 1 2 3 4 5 6 7 8 9 10 11 12 13 14 15 16 17 18 19 20 21 22 23 24 25 26
000
FTUS43 KDMX 200534
TAFOTM
TAF
KOTM 200534Z 2006/2106 VRB03KT 1/4SM FG OVC002
     FM201700 VRB05KT 3/4SM BR OVC002
     FM202100 12007KT 2SM BR OVC012
     FM202300 10009KT 5SM BR OVC008
     FM210300 13009KT 5SM BR VCSH OVC018=

USA.gov is the U.S. government's official web portal to all federal, state and local government web resources and services.